sensor_id;sensor_type;location;lat;lon;timestamp;P1;durP1;ratioP1;P2;durP2;ratioP2
2604;SDS011;1312;50.298;8.520;2024-02-28T00:00:47;37.63;;;23.30;;
2604;SDS011;1312;50.298;8.520;2024-02-28T00:03:15;32.23;;;28.73;;
2604;SDS011;1312;50.298;8.520;2024-02-28T00:05:45;32.77;;;28.27;;
2604;SDS011;1312;50.298;8.520;2024-02-28T00:08:13;31.57;;;28.20;;
2604;SDS011;1312;50.298;8.520;2024-02-28T00:10:41;34.03;;;29.40;;
2604;SDS011;1312;50.298;8.520;2024-02-28T00:13:09;29.13;;;26.30;;
2604;SDS011;1312;50.298;8.520;2024-02-28T00:15:36;31.67;;;26.17;;
2604;SDS011;1312;50.298;8.520;2024-02-28T00:18:04;30.60;;;27.30;;
2604;SDS011;1312;50.298;8.520;2024-02-28T00:20:33;30.80;;;25.50;;
2604;SDS011;1312;50.298;8.520;2024-02-28T00:23:02;34.80;;;26.93;;
2604;SDS011;1312;50.298;8.520;2024-02-28T00:25:30;35.30;;;27.40;;
2604;SDS011;1312;50.298;8.520;2024-02-28T00:27:58;33.10;;;27.43;;
2604;SDS011;1312;50.298;8.520;2024-02-28T00:30:26;37.00;;;29.10;;
2604;SDS011;1312;50.298;8.520;2024-02-28T00:32:55;36.07;;;28.63;;
2604;SDS011;1312;50.298;8.520;2024-02-28T00:35:23;30.33;;;26.50;;
2604;SDS011;1312;50.298;8.520;2024-02-28T00:37:50;34.20;;;28.03;;
2604;SDS011;1312;50.298;8.520;2024-02-28T00:40:19;36.67;;;28.90;;
2604;SDS011;1312;50.298;8.520;2024-02-28T00:42:47;36.43;;;28.33;;
2604;SDS011;1312;50.298;8.520;2024-02-28T00:45:15;39.87;;;29.73;;
2604;SDS011;1312;50.298;8.520;2024-02-28T00:47:43;39.63;;;29.80;;
2604;SDS011;1312;50.298;8.520;2024-02-28T00:50:11;33.40;;;27.33;;
2604;SDS011;1312;50.298;8.520;2024-02-28T00:52:39;40.53;;;29.40;;
2604;SDS011;1312;50.298;8.520;2024-02-28T00:55:07;36.60;;;29.20;;
2604;SDS011;1312;50.298;8.520;2024-02-28T00:57:37;37.57;;;27.70;;
2604;SDS011;1312;50.298;8.520;2024-02-28T01:00:06;36.17;;;28.30;;
2604;SDS011;1312;50.298;8.520;2024-02-28T01:02:36;38.13;;;29.60;;
2604;SDS011;1312;50.298;8.520;2024-02-28T01:05:04;37.50;;;30.10;;
2604;SDS011;1312;50.298;8.520;2024-02-28T01:07:32;40.40;;;29.30;;
2604;SDS011;1312;50.298;8.520;2024-02-28T01:10:00;41.77;;;30.87;;
2604;SDS011;1312;50.298;8.520;2024-02-28T01:12:29;38.83;;;30.70;;
2604;SDS011;1312;50.298;8.520;2024-02-28T01:14:58;35.90;;;29.90;;
2604;SDS011;1312;50.298;8.520;2024-02-28T01:17:26;38.77;;;28.80;;
2604;SDS011;1312;50.298;8.520;2024-02-28T01:19:54;42.33;;;30.00;;
2604;SDS011;1312;50.298;8.520;2024-02-28T01:22:22;39.70;;;29.00;;
2604;SDS011;1312;50.298;8.520;2024-02-28T01:24:50;38.40;;;31.77;;
2604;SDS011;1312;50.298;8.520;2024-02-28T01:27:18;37.73;;;31.27;;
2604;SDS011;1312;50.298;8.520;2024-02-28T01:29:46;45.77;;;31.83;;
2604;SDS011;1312;50.298;8.520;2024-02-28T01:32:16;38.90;;;30.20;;
2604;SDS011;1312;50.298;8.520;2024-02-28T01:34:44;40.23;;;29.53;;
2604;SDS011;1312;50.298;8.520;2024-02-28T01:37:12;33.37;;;28.50;;
2604;SDS011;1312;50.298;8.520;2024-02-28T01:39:40;43.13;;;27.87;;
2604;SDS011;1312;50.298;8.520;2024-02-28T01:42:08;34.63;;;23.47;;
2604;SDS011;1312;50.298;8.520;2024-02-28T01:44:37;36.83;;;22.83;;
2604;SDS011;1312;50.298;8.520;2024-02-28T01:47:11;40.70;;;24.43;;
2604;SDS011;1312;50.298;8.520;2024-02-28T01:49:41;32.23;;;22.13;;
2604;SDS011;1312;50.298;8.520;2024-02-28T01:52:09;40.80;;;24.97;;
2604;SDS011;1312;50.298;8.520;2024-02-28T01:54:39;38.80;;;24.27;;
2604;SDS011;1312;50.298;8.520;2024-02-28T01:57:07;34.43;;;22.20;;
2604;SDS011;1312;50.298;8.520;2024-02-28T01:59:36;40.53;;;23.97;;
2604;SDS011;1312;50.298;8.520;2024-02-28T02:02:04;38.43;;;26.43;;
2604;SDS011;1312;50.298;8.520;2024-02-28T02:04:33;37.77;;;24.70;;
2604;SDS011;1312;50.298;8.520;2024-02-28T02:07:02;35.40;;;23.33;;
2604;SDS011;1312;50.298;8.520;2024-02-28T02:09:31;34.57;;;23.57;;
2604;SDS011;1312;50.298;8.520;2024-02-28T02:12:00;44.03;;;25.60;;
2604;SDS011;1312;50.298;8.520;2024-02-28T02:14:28;37.90;;;24.77;;
2604;SDS011;1312;50.298;8.520;2024-02-28T02:16:56;43.40;;;26.47;;
2604;SDS011;1312;50.298;8.520;2024-02-28T02:19:24;46.27;;;28.00;;
2604;SDS011;1312;50.298;8.520;2024-02-28T02:21:53;41.57;;;26.50;;
2604;SDS011;1312;50.298;8.520;2024-02-28T02:24:26;49.00;;;29.60;;
2604;SDS011;1312;50.298;8.520;2024-02-28T02:26:54;45.77;;;27.47;;
2604;SDS011;1312;50.298;8.520;2024-02-28T02:29:25;50.60;;;28.17;;
2604;SDS011;1312;50.298;8.520;2024-02-28T02:31:54;50.20;;;27.87;;
2604;SDS011;1312;50.298;8.520;2024-02-28T02:34:22;43.93;;;27.93;;
2604;SDS011;1312;50.298;8.520;2024-02-28T02:36:50;43.87;;;27.00;;
2604;SDS011;1312;50.298;8.520;2024-02-28T02:39:18;49.03;;;28.60;;
2604;SDS011;1312;50.298;8.520;2024-02-28T02:41:47;48.50;;;28.10;;
2604;SDS011;1312;50.298;8.520;2024-02-28T02:44:14;54.10;;;29.53;;
2604;SDS011;1312;50.298;8.520;2024-02-28T02:46:42;51.30;;;29.10;;
2604;SDS011;1312;50.298;8.520;2024-02-28T02:49:10;54.80;;;29.37;;
2604;SDS011;1312;50.298;8.520;2024-02-28T02:51:38;49.60;;;28.50;;
2604;SDS011;1312;50.298;8.520;2024-02-28T02:54:08;41.47;;;25.33;;
2604;SDS011;1312;50.298;8.520;2024-02-28T02:56:36;44.53;;;26.07;;
2604;SDS011;1312;50.298;8.520;2024-02-28T02:59:06;48.53;;;28.47;;
2604;SDS011;1312;50.298;8.520;2024-02-28T03:01:34;50.07;;;29.67;;
2604;SDS011;1312;50.298;8.520;2024-02-28T03:04:02;52.50;;;28.17;;
2604;SDS011;1312;50.298;8.520;2024-02-28T03:06:30;49.37;;;28.17;;
2604;SDS011;1312;50.298;8.520;2024-02-28T03:08:58;53.87;;;29.53;;
2604;SDS011;1312;50.298;8.520;2024-02-28T03:11:26;54.77;;;31.07;;
2604;SDS011;1312;50.298;8.520;2024-02-28T03:13:54;54.63;;;29.97;;
2604;SDS011;1312;50.298;8.520;2024-02-28T03:16:24;54.50;;;30.57;;
2604;SDS011;1312;50.298;8.520;2024-02-28T03:18:51;51.17;;;30.10;;
2604;SDS011;1312;50.298;8.520;2024-02-28T03:21:20;55.90;;;31.50;;
2604;SDS011;1312;50.298;8.520;2024-02-28T03:23:49;58.70;;;29.10;;
2604;SDS011;1312;50.298;8.520;2024-02-28T03:26:17;64.10;;;31.20;;
2604;SDS011;1312;50.298;8.520;2024-02-28T03:28:44;56.47;;;31.30;;
2604;SDS011;1312;50.298;8.520;2024-02-28T03:31:12;57.73;;;30.40;;
2604;SDS011;1312;50.298;8.520;2024-02-28T03:33:42;50.93;;;28.23;;
2604;SDS011;1312;50.298;8.520;2024-02-28T03:36:10;51.07;;;28.17;;
2604;SDS011;1312;50.298;8.520;2024-02-28T03:38:37;56.97;;;30.10;;
2604;SDS011;1312;50.298;8.520;2024-02-28T03:41:05;47.60;;;27.40;;
2604;SDS011;1312;50.298;8.520;2024-02-28T03:43:33;51.33;;;28.60;;
2604;SDS011;1312;50.298;8.520;2024-02-28T03:46:02;52.47;;;27.63;;
2604;SDS011;1312;50.298;8.520;2024-02-28T03:48:30;43.53;;;24.67;;
2604;SDS011;1312;50.298;8.520;2024-02-28T03:50:59;46.67;;;26.60;;
2604;SDS011;1312;50.298;8.520;2024-02-28T03:53:27;44.23;;;25.60;;
2604;SDS011;1312;50.298;8.520;2024-02-28T03:55:55;39.70;;;24.63;;
2604;SDS011;1312;50.298;8.520;2024-02-28T03:58:23;34.90;;;23.10;;
2604;SDS011;1312;50.298;8.520;2024-02-28T04:00:51;34.90;;;21.67;;
2604;SDS011;1312;50.298;8.520;2024-02-28T04:03:19;46.10;;;26.90;;
2604;SDS011;1312;50.298;8.520;2024-02-28T04:05:47;38.10;;;23.67;;
2604;SDS011;1312;50.298;8.520;2024-02-28T04:08:17;67.93;;;32.30;;
2604;SDS011;1312;50.298;8.520;2024-02-28T04:10:45;59.30;;;30.60;;
2604;SDS011;1312;50.298;8.520;2024-02-28T04:13:12;37.07;;;22.90;;
2604;SDS011;1312;50.298;8.520;2024-02-28T04:15:40;36.80;;;22.20;;
2604;SDS011;1312;50.298;8.520;2024-02-28T04:18:08;30.50;;;21.20;;
2604;SDS011;1312;50.298;8.520;2024-02-28T04:20:36;32.97;;;21.47;;
2604;SDS011;1312;50.298;8.520;2024-02-28T04:23:05;29.53;;;20.90;;
2604;SDS011;1312;50.298;8.520;2024-02-28T04:25:34;41.03;;;21.57;;
2604;SDS011;1312;50.298;8.520;2024-02-28T04:28:02;40.90;;;23.90;;
2604;SDS011;1312;50.298;8.520;2024-02-28T04:30:30;40.77;;;22.00;;
2604;SDS011;1312;50.298;8.520;2024-02-28T04:32:58;38.17;;;23.77;;
2604;SDS011;1312;50.298;8.520;2024-02-28T04:35:26;35.80;;;22.87;;
2604;SDS011;1312;50.298;8.520;2024-02-28T04:37:54;35.70;;;23.07;;
2604;SDS011;1312;50.298;8.520;2024-02-28T04:40:22;35.20;;;23.10;;
2604;SDS011;1312;50.298;8.520;2024-02-28T04:42:51;42.10;;;23.87;;
2604;SDS011;1312;50.298;8.520;2024-02-28T04:45:20;63.93;;;27.77;;
2604;SDS011;1312;50.298;8.520;2024-02-28T04:47:48;51.20;;;25.07;;
2604;SDS011;1312;50.298;8.520;2024-02-28T04:50:18;39.10;;;23.80;;
2604;SDS011;1312;50.298;8.520;2024-02-28T04:52:46;38.53;;;24.10;;
2604;SDS011;1312;50.298;8.520;2024-02-28T04:55:14;36.80;;;23.00;;
2604;SDS011;1312;50.298;8.520;2024-02-28T04:57:42;38.63;;;24.00;;
2604;SDS011;1312;50.298;8.520;2024-02-28T05:00:12;39.20;;;23.13;;
2604;SDS011;1312;50.298;8.520;2024-02-28T05:02:40;35.53;;;23.00;;
2604;SDS011;1312;50.298;8.520;2024-02-28T05:05:08;34.60;;;22.67;;
2604;SDS011;1312;50.298;8.520;2024-02-28T05:07:36;62.50;;;25.47;;
2604;SDS011;1312;50.298;8.520;2024-02-28T05:10:05;36.27;;;23.73;;
2604;SDS011;1312;50.298;8.520;2024-02-28T05:12:34;36.17;;;23.83;;
2604;SDS011;1312;50.298;8.520;2024-02-28T05:15:02;573.63;;;89.10;;
2604;SDS011;1312;50.298;8.520;2024-02-28T05:17:34;52.03;;;28.03;;
2604;SDS011;1312;50.298;8.520;2024-02-28T05:20:02;49.50;;;26.17;;
2604;SDS011;1312;50.298;8.520;2024-02-28T05:22:30;504.03;;;81.27;;
2604;SDS011;1312;50.298;8.520;2024-02-28T05:24:58;560.93;;;85.70;;
2604;SDS011;1312;50.298;8.520;2024-02-28T05:27:26;547.73;;;77.83;;
2604;SDS011;1312;50.298;8.520;2024-02-28T05:29:54;757.30;;;92.50;;
2604;SDS011;1312;50.298;8.520;2024-02-28T05:32:22;869.97;;;97.20;;
2604;SDS011;1312;50.298;8.520;2024-02-28T05:34:52;716.40;;;88.90;;
2604;SDS011;1312;50.298;8.520;2024-02-28T05:37:20;589.57;;;80.03;;
2604;SDS011;1312;50.298;8.520;2024-02-28T05:39:47;608.03;;;76.27;;
2604;SDS011;1312;50.298;8.520;2024-02-28T05:42:15;43.10;;;23.63;;
2604;SDS011;1312;50.298;8.520;2024-02-28T05:44:48;399.30;;;63.20;;
2604;SDS011;1312;50.298;8.520;2024-02-28T05:47:16;370.87;;;65.97;;
2604;SDS011;1312;50.298;8.520;2024-02-28T05:49:52;307.47;;;57.57;;
2604;SDS011;1312;50.298;8.520;2024-02-28T05:52:22;53.23;;;27.40;;
2604;SDS011;1312;50.298;8.520;2024-02-28T05:54:51;72.03;;;32.53;;
2604;SDS011;1312;50.298;8.520;2024-02-28T05:57:19;69.03;;;30.23;;
2604;SDS011;1312;50.298;8.520;2024-02-28T05:59:47;59.33;;;28.80;;
2604;SDS011;1312;50.298;8.520;2024-02-28T06:02:15;70.37;;;29.83;;
2604;SDS011;1312;50.298;8.520;2024-02-28T06:04:43;74.13;;;30.27;;
2604;SDS011;1312;50.298;8.520;2024-02-28T06:07:12;69.07;;;32.03;;
2604;SDS011;1312;50.298;8.520;2024-02-28T06:09:40;68.80;;;31.90;;
2604;SDS011;1312;50.298;8.520;2024-02-28T06:12:08;84.87;;;31.10;;
2604;SDS011;1312;50.298;8.520;2024-02-28T06:14:36;47.17;;;23.40;;
2604;SDS011;1312;50.298;8.520;2024-02-28T06:17:04;37.60;;;20.50;;
2604;SDS011;1312;50.298;8.520;2024-02-28T06:19:32;55.57;;;27.10;;
2604;SDS011;1312;50.298;8.520;2024-02-28T06:22:00;33.93;;;20.40;;
2604;SDS011;1312;50.298;8.520;2024-02-28T06:24:33;40.40;;;20.93;;
2604;SDS011;1312;50.298;8.520;2024-02-28T06:27:01;37.47;;;21.33;;
2604;SDS011;1312;50.298;8.520;2024-02-28T06:29:30;48.37;;;25.73;;
2604;SDS011;1312;50.298;8.520;2024-02-28T06:31:58;28.13;;;18.10;;
2604;SDS011;1312;50.298;8.520;2024-02-28T06:34:26;30.17;;;18.30;;
2604;SDS011;1312;50.298;8.520;2024-02-28T06:36:54;30.40;;;19.00;;
2604;SDS011;1312;50.298;8.520;2024-02-28T06:39:22;29.00;;;17.93;;
2604;SDS011;1312;50.298;8.520;2024-02-28T06:41:51;162.30;;;100.97;;
2604;SDS011;1312;50.298;8.520;2024-02-28T06:44:19;141.40;;;79.63;;
2604;SDS011;1312;50.298;8.520;2024-02-28T06:46:47;58.00;;;32.73;;
2604;SDS011;1312;50.298;8.520;2024-02-28T06:49:15;40.57;;;24.47;;
2604;SDS011;1312;50.298;8.520;2024-02-28T06:51:43;72.00;;;35.10;;
2604;SDS011;1312;50.298;8.520;2024-02-28T06:54:11;42.63;;;24.47;;
2604;SDS011;1312;50.298;8.520;2024-02-28T06:56:39;88.73;;;36.30;;
2604;SDS011;1312;50.298;8.520;2024-02-28T06:59:08;91.47;;;36.67;;
2604;SDS011;1312;50.298;8.520;2024-02-28T07:01:36;81.77;;;36.40;;
2604;SDS011;1312;50.298;8.520;2024-02-28T07:04:04;66.93;;;29.23;;
2604;SDS011;1312;50.298;8.520;2024-02-28T07:06:33;43.03;;;24.20;;
2604;SDS011;1312;50.298;8.520;2024-02-28T07:09:01;50.53;;;26.03;;
2604;SDS011;1312;50.298;8.520;2024-02-28T07:11:29;47.27;;;23.73;;
2604;SDS011;1312;50.298;8.520;2024-02-28T07:13:57;40.73;;;23.30;;
2604;SDS011;1312;50.298;8.520;2024-02-28T07:16:29;125.73;;;38.83;;
2604;SDS011;1312;50.298;8.520;2024-02-28T07:21:27;94.20;;;31.13;;
2604;SDS011;1312;50.298;8.520;2024-02-28T07:23:56;71.90;;;29.17;;
2604;SDS011;1312;50.298;8.520;2024-02-28T07:26:24;44.87;;;22.40;;
2604;SDS011;1312;50.298;8.520;2024-02-28T07:28:53;42.13;;;20.30;;
2604;SDS011;1312;50.298;8.520;2024-02-28T07:31:21;41.27;;;21.67;;
2604;SDS011;1312;50.298;8.520;2024-02-28T07:33:50;288.57;;;69.10;;
2604;SDS011;1312;50.298;8.520;2024-02-28T07:36:19;607.73;;;75.57;;
2604;SDS011;1312;50.298;8.520;2024-02-28T07:38:47;582.50;;;71.93;;
2604;SDS011;1312;50.298;8.520;2024-02-28T07:41:15;54.23;;;22.90;;
2604;SDS011;1312;50.298;8.520;2024-02-28T07:43:43;30.23;;;17.77;;
2604;SDS011;1312;50.298;8.520;2024-02-28T07:46:13;30.40;;;18.10;;
2604;SDS011;1312;50.298;8.520;2024-02-28T07:48:41;26.67;;;17.60;;
2604;SDS011;1312;50.298;8.520;2024-02-28T07:51:10;27.40;;;18.40;;
2604;SDS011;1312;50.298;8.520;2024-02-28T07:53:38;25.30;;;16.73;;
2604;SDS011;1312;50.298;8.520;2024-02-28T07:56:07;18.87;;;14.33;;
2604;SDS011;1312;50.298;8.520;2024-02-28T07:58:43;18.83;;;15.23;;
2604;SDS011;1312;50.298;8.520;2024-02-28T08:01:11;113.30;;;23.03;;
2604;SDS011;1312;50.298;8.520;2024-02-28T08:03:40;116.23;;;31.33;;
2604;SDS011;1312;50.298;8.520;2024-02-28T08:06:08;33.57;;;17.63;;
2604;SDS011;1312;50.298;8.520;2024-02-28T08:08:39;19.17;;;15.67;;
2604;SDS011;1312;50.298;8.520;2024-02-28T08:11:07;19.37;;;15.13;;
2604;SDS011;1312;50.298;8.520;2024-02-28T08:13:35;16.10;;;14.40;;
2604;SDS011;1312;50.298;8.520;2024-02-28T08:16:03;17.80;;;15.03;;
2604;SDS011;1312;50.298;8.520;2024-02-28T08:18:33;24.80;;;16.00;;
2604;SDS011;1312;50.298;8.520;2024-02-28T08:21:01;17.47;;;14.80;;
2604;SDS011;1312;50.298;8.520;2024-02-28T08:23:29;20.23;;;16.13;;
2604;SDS011;1312;50.298;8.520;2024-02-28T08:25:59;19.33;;;15.23;;
2604;SDS011;1312;50.298;8.520;2024-02-28T08:28:27;17.40;;;14.40;;
2604;SDS011;1312;50.298;8.520;2024-02-28T08:30:55;37.13;;;18.20;;
2604;SDS011;1312;50.298;8.520;2024-02-28T08:33:23;20.13;;;14.70;;
2604;SDS011;1312;50.298;8.520;2024-02-28T08:35:51;16.87;;;14.73;;
2604;SDS011;1312;50.298;8.520;2024-02-28T08:38:20;16.50;;;14.57;;
2604;SDS011;1312;50.298;8.520;2024-02-28T08:40:48;21.83;;;15.67;;
2604;SDS011;1312;50.298;8.520;2024-02-28T08:43:17;20.10;;;14.30;;
2604;SDS011;1312;50.298;8.520;2024-02-28T08:45:45;22.87;;;16.07;;
2604;SDS011;1312;50.298;8.520;2024-02-28T08:48:13;21.63;;;15.90;;
2604;SDS011;1312;50.298;8.520;2024-02-28T08:50:41;19.43;;;15.23;;
2604;SDS011;1312;50.298;8.520;2024-02-28T08:53:09;22.70;;;16.43;;
2604;SDS011;1312;50.298;8.520;2024-02-28T08:55:37;19.93;;;13.97;;
2604;SDS011;1312;50.298;8.520;2024-02-28T08:58:05;18.73;;;15.40;;
2604;SDS011;1312;50.298;8.520;2024-02-28T09:00:35;19.23;;;15.17;;
2604;SDS011;1312;50.298;8.520;2024-02-28T09:03:03;20.60;;;15.20;;
2604;SDS011;1312;50.298;8.520;2024-02-28T09:05:31;19.37;;;15.20;;
2604;SDS011;1312;50.298;8.520;2024-02-28T09:07:59;21.63;;;16.10;;
2604;SDS011;1312;50.298;8.520;2024-02-28T09:10:28;20.67;;;16.00;;
2604;SDS011;1312;50.298;8.520;2024-02-28T09:13:00;23.53;;;15.53;;
2604;SDS011;1312;50.298;8.520;2024-02-28T09:15:28;21.00;;;16.70;;
2604;SDS011;1312;50.298;8.520;2024-02-28T09:17:58;20.10;;;14.43;;
2604;SDS011;1312;50.298;8.520;2024-02-28T09:20:27;24.17;;;16.83;;
2604;SDS011;1312;50.298;8.520;2024-02-28T09:22:54;21.07;;;15.20;;
2604;SDS011;1312;50.298;8.520;2024-02-28T09:25:22;21.13;;;16.20;;
2604;SDS011;1312;50.298;8.520;2024-02-28T09:27:54;20.67;;;15.00;;
2604;SDS011;1312;50.298;8.520;2024-02-28T09:30:23;23.47;;;17.60;;
2604;SDS011;1312;50.298;8.520;2024-02-28T09:32:59;21.83;;;15.70;;
2604;SDS011;1312;50.298;8.520;2024-02-28T09:35:27;23.93;;;16.10;;
2604;SDS011;1312;50.298;8.520;2024-02-28T09:37:55;21.70;;;17.17;;
2604;SDS011;1312;50.298;8.520;2024-02-28T09:40:23;22.67;;;17.30;;
2604;SDS011;1312;50.298;8.520;2024-02-28T09:42:52;26.03;;;18.53;;
2604;SDS011;1312;50.298;8.520;2024-02-28T09:45:24;23.43;;;16.60;;
2604;SDS011;1312;50.298;8.520;2024-02-28T09:47:56;24.00;;;16.83;;
2604;SDS011;1312;50.298;8.520;2024-02-28T09:50:27;29.43;;;18.03;;
2604;SDS011;1312;50.298;8.520;2024-02-28T09:52:56;24.93;;;17.57;;
2604;SDS011;1312;50.298;8.520;2024-02-28T09:55:35;25.57;;;18.87;;
2604;SDS011;1312;50.298;8.520;2024-02-28T09:58:03;20.50;;;16.00;;
2604;SDS011;1312;50.298;8.520;2024-02-28T10:00:32;23.33;;;16.50;;
2604;SDS011;1312;50.298;8.520;2024-02-28T10:03:01;20.30;;;16.40;;
2604;SDS011;1312;50.298;8.520;2024-02-28T10:05:31;20.87;;;15.40;;
2604;SDS011;1312;50.298;8.520;2024-02-28T10:08:01;22.00;;;17.57;;
2604;SDS011;1312;50.298;8.520;2024-02-28T10:10:28;22.63;;;16.57;;
2604;SDS011;1312;50.298;8.520;2024-02-28T10:12:56;21.73;;;17.40;;
2604;SDS011;1312;50.298;8.520;2024-02-28T10:15:26;21.70;;;17.17;;
2604;SDS011;1312;50.298;8.520;2024-02-28T10:17:54;21.13;;;17.33;;
2604;SDS011;1312;50.298;8.520;2024-02-28T10:20:21;20.73;;;16.67;;
2604;SDS011;1312;50.298;8.520;2024-02-28T10:22:53;20.63;;;17.43;;
2604;SDS011;1312;50.298;8.520;2024-02-28T10:25:21;21.80;;;16.50;;
2604;SDS011;1312;50.298;8.520;2024-02-28T10:27:50;20.63;;;18.07;;
2604;SDS011;1312;50.298;8.520;2024-02-28T10:30:18;21.07;;;18.43;;
2604;SDS011;1312;50.298;8.520;2024-02-28T10:32:49;30.73;;;19.10;;
2604;SDS011;1312;50.298;8.520;2024-02-28T10:35:17;21.40;;;17.97;;
2604;SDS011;1312;50.298;8.520;2024-02-28T10:37:46;23.63;;;20.20;;
2604;SDS011;1312;50.298;8.520;2024-02-28T10:40:19;21.10;;;18.20;;
2604;SDS011;1312;50.298;8.520;2024-02-28T10:42:48;19.23;;;17.17;;
2604;SDS011;1312;50.298;8.520;2024-02-28T10:45:17;21.83;;;19.20;;
2604;SDS011;1312;50.298;8.520;2024-02-28T10:48:06;21.50;;;18.47;;
2604;SDS011;1312;50.298;8.520;2024-02-28T10:50:35;20.23;;;17.23;;
2604;SDS011;1312;50.298;8.520;2024-02-28T10:53:03;22.03;;;18.33;;
2604;SDS011;1312;50.298;8.520;2024-02-28T10:55:34;19.73;;;17.73;;
2604;SDS011;1312;50.298;8.520;2024-02-28T10:58:07;19.20;;;17.20;;
2604;SDS011;1312;50.298;8.520;2024-02-28T11:00:36;18.70;;;16.70;;
2604;SDS011;1312;50.298;8.520;2024-02-28T11:03:07;21.80;;;19.57;;
2604;SDS011;1312;50.298;8.520;2024-02-28T11:05:37;21.80;;;19.70;;
2604;SDS011;1312;50.298;8.520;2024-02-28T11:08:08;20.23;;;18.13;;
2604;SDS011;1312;50.298;8.520;2024-02-28T11:10:41;22.50;;;20.20;;
2604;SDS011;1312;50.298;8.520;2024-02-28T11:13:21;23.47;;;21.07;;
2604;SDS011;1312;50.298;8.520;2024-02-28T11:15:49;19.97;;;18.07;;
2604;SDS011;1312;50.298;8.520;2024-02-28T11:18:17;19.17;;;17.33;;
2604;SDS011;1312;50.298;8.520;2024-02-28T11:20:45;19.50;;;17.70;;
2604;SDS011;1312;50.298;8.520;2024-02-28T11:23:16;21.30;;;19.20;;
2604;SDS011;1312;50.298;8.520;2024-02-28T11:25:46;22.90;;;20.40;;
2604;SDS011;1312;50.298;8.520;2024-02-28T11:28:14;23.50;;;21.17;;
2604;SDS011;1312;50.298;8.520;2024-02-28T11:30:43;21.90;;;19.70;;
2604;SDS011;1312;50.298;8.520;2024-02-28T11:33:11;23.33;;;21.03;;
2604;SDS011;1312;50.298;8.520;2024-02-28T11:35:39;22.07;;;19.87;;
2604;SDS011;1312;50.298;8.520;2024-02-28T11:38:07;22.20;;;19.90;;
2604;SDS011;1312;50.298;8.520;2024-02-28T11:40:36;20.47;;;18.47;;
2604;SDS011;1312;50.298;8.520;2024-02-28T11:43:05;20.37;;;18.30;;
2604;SDS011;1312;50.298;8.520;2024-02-28T11:45:38;20.50;;;18.57;;
2604;SDS011;1312;50.298;8.520;2024-02-28T11:48:07;23.37;;;21.00;;
2604;SDS011;1312;50.298;8.520;2024-02-28T11:50:37;20.47;;;18.37;;
2604;SDS011;1312;50.298;8.520;2024-02-28T11:53:05;21.23;;;18.93;;
2604;SDS011;1312;50.298;8.520;2024-02-28T11:55:33;20.60;;;18.50;;
2604;SDS011;1312;50.298;8.520;2024-02-28T11:58:02;20.50;;;18.30;;
2604;SDS011;1312;50.298;8.520;2024-02-28T12:00:36;20.60;;;18.50;;
2604;SDS011;1312;50.298;8.520;2024-02-28T12:03:14;22.93;;;20.83;;
2604;SDS011;1312;50.298;8.520;2024-02-28T12:05:46;24.80;;;22.40;;
2604;SDS011;1312;50.298;8.520;2024-02-28T12:08:14;24.47;;;22.07;;
2604;SDS011;1312;50.298;8.520;2024-02-28T12:10:44;21.93;;;20.03;;
2604;SDS011;1312;50.298;8.520;2024-02-28T12:13:15;23.27;;;20.83;;
2604;SDS011;1312;50.298;8.520;2024-02-28T12:15:45;22.00;;;19.97;;
2604;SDS011;1312;50.298;8.520;2024-02-28T12:18:14;20.87;;;19.10;;
2604;SDS011;1312;50.298;8.520;2024-02-28T12:20:43;21.63;;;19.73;;
2604;SDS011;1312;50.298;8.520;2024-02-28T12:23:11;22.17;;;20.27;;
2604;SDS011;1312;50.298;8.520;2024-02-28T12:25:39;25.00;;;22.70;;
2604;SDS011;1312;50.298;8.520;2024-02-28T12:28:07;21.93;;;20.13;;
2604;SDS011;1312;50.298;8.520;2024-02-28T12:30:39;23.30;;;21.50;;
2604;SDS011;1312;50.298;8.520;2024-02-28T12:33:10;17.93;;;16.23;;
2604;SDS011;1312;50.298;8.520;2024-02-28T12:35:38;18.07;;;16.40;;
2604;SDS011;1312;50.298;8.520;2024-02-28T12:38:08;20.17;;;18.20;;
2604;SDS011;1312;50.298;8.520;2024-02-28T12:40:36;19.50;;;17.47;;
2604;SDS011;1312;50.298;8.520;2024-02-28T12:43:04;16.93;;;15.33;;
2604;SDS011;1312;50.298;8.520;2024-02-28T12:45:32;20.87;;;18.90;;
2604;SDS011;1312;50.298;8.520;2024-02-28T12:48:00;18.40;;;16.67;;
2604;SDS011;1312;50.298;8.520;2024-02-28T12:50:30;18.13;;;16.43;;
2604;SDS011;1312;50.298;8.520;2024-02-28T12:52:59;17.87;;;16.07;;
2604;SDS011;1312;50.298;8.520;2024-02-28T12:55:27;19.87;;;17.93;;
2604;SDS011;1312;50.298;8.520;2024-02-28T12:57:55;18.37;;;16.47;;
2604;SDS011;1312;50.298;8.520;2024-02-28T13:00:26;16.60;;;15.00;;
2604;SDS011;1312;50.298;8.520;2024-02-28T13:02:54;20.20;;;17.03;;
2604;SDS011;1312;50.298;8.520;2024-02-28T13:05:22;18.27;;;16.40;;
2604;SDS011;1312;50.298;8.520;2024-02-28T13:07:52;18.03;;;16.30;;
2604;SDS011;1312;50.298;8.520;2024-02-28T13:10:20;16.93;;;15.30;;
2604;SDS011;1312;50.298;8.520;2024-02-28T13:12:49;16.93;;;15.27;;
2604;SDS011;1312;50.298;8.520;2024-02-28T13:15:17;18.60;;;15.57;;
2604;SDS011;1312;50.298;8.520;2024-02-28T13:17:45;16.80;;;15.20;;
2604;SDS011;1312;50.298;8.520;2024-02-28T13:20:16;17.40;;;15.80;;
2604;SDS011;1312;50.298;8.520;2024-02-28T13:22:44;16.67;;;15.07;;
2604;SDS011;1312;50.298;8.520;2024-02-28T13:25:13;17.87;;;16.27;;
2604;SDS011;1312;50.298;8.520;2024-02-28T13:27:41;16.73;;;15.13;;
2604;SDS011;1312;50.298;8.520;2024-02-28T13:30:10;17.63;;;16.00;;
2604;SDS011;1312;50.298;8.520;2024-02-28T13:32:38;17.30;;;15.70;;
2604;SDS011;1312;50.298;8.520;2024-02-28T13:35:06;15.97;;;14.30;;
2604;SDS011;1312;50.298;8.520;2024-02-28T13:37:35;16.33;;;14.63;;
2604;SDS011;1312;50.298;8.520;2024-02-28T13:40:07;16.60;;;15.00;;
2604;SDS011;1312;50.298;8.520;2024-02-28T13:42:38;16.97;;;15.20;;
2604;SDS011;1312;50.298;8.520;2024-02-28T13:45:07;15.33;;;13.83;;
2604;SDS011;1312;50.298;8.520;2024-02-28T13:47:37;16.67;;;14.97;;
2604;SDS011;1312;50.298;8.520;2024-02-28T13:50:05;18.33;;;16.43;;
2604;SDS011;1312;50.298;8.520;2024-02-28T13:52:35;16.40;;;14.70;;
2604;SDS011;1312;50.298;8.520;2024-02-28T13:55:04;16.83;;;15.10;;
2604;SDS011;1312;50.298;8.520;2024-02-28T13:57:32;16.73;;;15.23;;
2604;SDS011;1312;50.298;8.520;2024-02-28T14:00:02;16.90;;;15.20;;
2604;SDS011;1312;50.298;8.520;2024-02-28T14:02:33;16.40;;;14.80;;
2604;SDS011;1312;50.298;8.520;2024-02-28T14:05:01;16.50;;;14.30;;
2604;SDS011;1312;50.298;8.520;2024-02-28T14:07:30;17.40;;;15.80;;
2604;SDS011;1312;50.298;8.520;2024-02-28T14:09:58;18.00;;;16.20;;
2604;SDS011;1312;50.298;8.520;2024-02-28T14:12:26;16.93;;;15.20;;
2604;SDS011;1312;50.298;8.520;2024-02-28T14:14:55;17.17;;;15.33;;
2604;SDS011;1312;50.298;8.520;2024-02-28T14:17:26;17.10;;;15.30;;
2604;SDS011;1312;50.298;8.520;2024-02-28T14:19:54;15.57;;;14.07;;
2604;SDS011;1312;50.298;8.520;2024-02-28T14:22:22;17.93;;;13.67;;
2604;SDS011;1312;50.298;8.520;2024-02-28T14:24:52;16.50;;;14.80;;
2604;SDS011;1312;50.298;8.520;2024-02-28T14:27:20;16.13;;;14.43;;
2604;SDS011;1312;50.298;8.520;2024-02-28T14:29:47;16.23;;;14.53;;
2604;SDS011;1312;50.298;8.520;2024-02-28T14:32:16;15.03;;;13.60;;
2604;SDS011;1312;50.298;8.520;2024-02-28T14:34:45;16.20;;;14.60;;
2604;SDS011;1312;50.298;8.520;2024-02-28T14:37:16;16.00;;;14.50;;
2604;SDS011;1312;50.298;8.520;2024-02-28T14:39:44;15.17;;;13.67;;
2604;SDS011;1312;50.298;8.520;2024-02-28T14:42:12;14.43;;;13.13;;
2604;SDS011;1312;50.298;8.520;2024-02-28T14:44:40;16.17;;;14.57;;
2604;SDS011;1312;50.298;8.520;2024-02-28T14:47:08;15.47;;;13.97;;
2604;SDS011;1312;50.298;8.520;2024-02-28T14:49:36;15.80;;;14.10;;
2604;SDS011;1312;50.298;8.520;2024-02-28T14:52:06;16.80;;;15.10;;
2604;SDS011;1312;50.298;8.520;2024-02-28T14:54:33;18.20;;;16.30;;
2604;SDS011;1312;50.298;8.520;2024-02-28T14:57:01;18.60;;;16.80;;
2604;SDS011;1312;50.298;8.520;2024-02-28T14:59:30;19.80;;;17.80;;